createdAt,value
2022-12-11T07:16:11.073Z,14.78
2022-12-11T07:18:39.837Z,14.80
2022-12-11T07:21:07.806Z,14.72
2022-12-11T07:23:35.501Z,14.69
2022-12-11T07:26:20.403Z,14.68
2022-12-11T07:28:47.622Z,14.68
2022-12-11T07:31:23.729Z,14.59
2022-12-11T07:34:06.813Z,14.61
2022-12-11T07:36:34.573Z,14.52
2022-12-11T07:39:01.991Z,14.43
2022-12-11T07:41:29.390Z,14.45
2022-12-11T07:43:56.534Z,14.40
2022-12-11T07:46:26.364Z,14.48
2022-12-11T07:48:53.358Z,14.42
2022-12-11T07:51:28.060Z,14.75
2022-12-11T07:53:58.441Z,14.87
2022-12-11T07:58:52.661Z,15.05
2022-12-11T08:01:22.706Z,15.12
2022-12-11T08:03:50.926Z,15.12
2022-12-11T08:06:18.437Z,15.06
2022-12-11T08:08:45.334Z,15.28
2022-12-11T08:11:14.686Z,15.34
2022-12-11T08:40:16.598Z,14.75
2022-12-11T08:42:43.530Z,14.71
2022-12-11T08:45:10.836Z,14.71
2022-12-11T08:47:38.665Z,14.62
2022-12-11T08:50:06.026Z,14.40
2022-12-11T08:52:35.441Z,14.24
2022-12-11T08:55:02.329Z,14.07
2022-12-11T08:57:29.116Z,13.85
2022-12-11T08:59:56.011Z,13.70
2022-12-11T09:02:23.013Z,13.58
2022-12-11T09:04:50.738Z,13.52
2022-12-11T09:07:17.638Z,13.86
2022-12-11T09:09:44.425Z,14.27
2022-12-11T09:12:11.477Z,14.74
2022-12-11T09:14:38.877Z,15.15
2022-12-11T09:17:05.728Z,15.37
2022-12-11T09:19:32.754Z,15.74
2022-12-11T09:21:59.660Z,16.13
2022-12-11T09:24:26.470Z,16.33
2022-12-11T09:26:54.708Z,16.40
2022-12-11T09:29:21.575Z,16.33
2022-12-11T09:31:49.783Z,15.98
2022-12-11T09:34:16.603Z,16.17
2022-12-11T09:36:44.451Z,16.20
2022-12-11T09:39:13.279Z,15.78
2022-12-11T09:42:04.510Z,15.67
2022-12-11T09:44:49.687Z,15.71
2022-12-11T09:47:22.007Z,15.98
2022-12-11T09:49:55.118Z,16.16
2022-12-11T09:52:47.828Z,16.38
2022-12-11T09:55:23.302Z,16.60
2022-12-11T09:58:01.992Z,16.88
2022-12-11T10:00:36.869Z,17.16
2022-12-11T10:03:07.384Z,16.92
2022-12-11T10:06:15.607Z,16.74
2022-12-11T10:08:52.809Z,16.61
2022-12-11T10:11:40.165Z,16.32
2022-12-11T10:14:19.976Z,16.35
2022-12-11T10:16:56.644Z,16.26
2022-12-11T10:19:30.225Z,16.02
2022-12-11T10:21:59.185Z,15.76
2022-12-11T10:25:09.942Z,15.33
2022-12-11T10:27:31.602Z,15.13
2022-12-11T10:30:22.637Z,14.88
2022-12-11T10:33:13.797Z,14.65
2022-12-11T10:35:55.844Z,14.49
2022-12-11T10:38:30.663Z,14.51
2022-12-11T10:41:14.228Z,14.86
2022-12-11T10:43:43.584Z,15.22
2022-12-11T10:46:18.083Z,15.67
2022-12-11T10:49:00.052Z,16.15
2022-12-11T10:51:33.018Z,16.80
2022-12-11T10:54:09.062Z,17.03
2022-12-11T10:56:38.106Z,17.26
2022-12-11T10:59:05.311Z,17.27
2022-12-11T11:01:33.224Z,17.12
2022-12-11T11:04:10.253Z,16.84
2022-12-11T11:06:37.158Z,16.50
2022-12-11T11:09:04.838Z,16.15
2022-12-11T11:11:35.257Z,16.07
2022-12-11T11:14:21.329Z,15.83
2022-12-11T11:16:50.914Z,15.75
2022-12-11T11:19:27.492Z,15.80
2022-12-11T11:21:59.046Z,15.76
2022-12-11T11:24:40.224Z,15.46
2022-12-11T11:27:25.259Z,15.48
2022-12-11T11:29:55.768Z,15.37
2022-12-11T11:32:34.542Z,15.16
2022-12-11T11:35:28.778Z,15.14
2022-12-11T11:38:06.616Z,15.13
2022-12-11T11:41:07.657Z,15.13
2022-12-11T11:43:52.897Z,15.23
2022-12-11T11:46:32.321Z,15.20
2022-12-11T11:49:16.133Z,15.19
2022-12-11T11:52:08.423Z,15.03
2022-12-11T11:54:40.020Z,15.10
2022-12-11T11:57:20.591Z,15.01
2022-12-11T11:59:56.246Z,14.88
2022-12-11T12:02:23.314Z,14.89
2022-12-11T12:04:52.084Z,14.70
2022-12-11T12:07:38.207Z,14.70
2022-12-11T12:10:18.063Z,14.57
2022-12-11T12:13:23.826Z,14.56
2022-12-11T12:15:59.010Z,14.23
2022-12-11T12:18:58.355Z,13.65
2022-12-11T12:21:35.739Z,12.95
2022-12-11T12:24:18.704Z,12.37
2022-12-11T12:27:50.454Z,11.62
2022-12-11T12:30:18.898Z,10.92
2022-12-11T12:33:04.177Z,10.25
2022-12-11T12:35:36.018Z,9.55
2022-12-11T12:38:06.140Z,8.90
2022-12-11T12:40:55.894Z,8.43
2022-12-11T12:43:47.464Z,7.87
2022-12-11T12:46:39.012Z,7.53
2022-12-11T12:49:12.952Z,7.22
2022-12-11T12:51:41.870Z,7.01
2022-12-11T12:54:14.452Z,6.80
2022-12-11T12:56:43.840Z,6.65
2022-12-11T12:59:22.878Z,6.36
2022-12-11T13:02:00.264Z,6.23
2022-12-11T13:04:55.467Z,6.11
2022-12-11T13:07:29.971Z,5.98
2022-12-11T13:09:58.927Z,5.83
2022-12-11T13:12:44.905Z,5.68
2022-12-11T13:15:31.503Z,5.60
2022-12-11T13:17:59.680Z,5.43
2022-12-11T13:20:30.545Z,5.29
2022-12-11T13:23:17.730Z,5.32
2022-12-11T13:25:56.937Z,5.22
2022-12-11T13:28:35.685Z,5.12
2022-12-11T13:31:04.928Z,5.06
2022-12-11T13:33:32.745Z,4.98
2022-12-11T13:36:33.853Z,4.95
2022-12-11T13:39:17.418Z,4.83
2022-12-11T13:41:48.410Z,4.76
2022-12-11T13:44:26.476Z,4.67
2022-12-11T13:46:58.681Z,4.62
2022-12-11T13:49:42.618Z,4.52
2022-12-11T13:52:24.052Z,4.50
2022-12-11T13:54:56.226Z,4.46
2022-12-11T13:57:31.706Z,4.39
2022-12-11T13:59:59.713Z,4.36
2022-12-11T14:02:42.663Z,4.31
2022-12-11T14:05:12.685Z,4.25
2022-12-11T14:07:49.196Z,4.24
2022-12-11T14:10:28.811Z,4.18
2022-12-11T14:13:19.791Z,4.17
2022-12-11T14:15:47.045Z,4.10
2022-12-11T14:18:21.207Z,4.03
2022-12-11T14:20:55.477Z,3.97
2022-12-11T14:26:39.594Z,3.90
2022-12-11T14:29:06.675Z,3.80
2022-12-11T14:31:44.050Z,3.76
2022-12-11T14:34:26.480Z,3.72
2022-12-11T14:36:54.545Z,3.69
2022-12-11T14:39:28.876Z,3.62
2022-12-11T14:42:11.079Z,3.50
2022-12-11T14:44:52.812Z,3.39
2022-12-11T14:47:27.304Z,3.35
2022-12-11T14:49:58.875Z,3.30
2022-12-11T14:52:53.437Z,3.27
2022-12-11T14:55:28.869Z,3.27
2022-12-11T14:58:00.454Z,3.29
2022-12-11T15:00:35.970Z,3.31
2022-12-11T15:03:07.285Z,3.29
2022-12-11T15:05:40.670Z,3.21
2022-12-11T15:08:10.938Z,3.18
2022-12-11T15:10:42.019Z,3.12
2022-12-11T15:13:10.461Z,3.08
2022-12-11T15:15:47.883Z,3.00
2022-12-11T15:18:29.298Z,3.03
2022-12-11T15:21:10.080Z,2.96
2022-12-11T15:23:45.914Z,2.94
2022-12-11T15:26:12.962Z,2.93
2022-12-11T15:28:39.875Z,2.93
2022-12-11T15:31:28.643Z,2.92
2022-12-11T15:33:55.628Z,2.87
2022-12-11T15:36:35.100Z,2.87
2022-12-11T15:39:02.351Z,2.83
2022-12-11T15:41:33.422Z,2.81
2022-12-11T15:44:03.308Z,2.77
2022-12-11T15:46:30.703Z,2.73
2022-12-11T15:48:57.877Z,2.75
2022-12-11T15:51:25.501Z,2.61
2022-12-11T15:53:52.556Z,2.75
2022-12-11T15:56:19.667Z,2.77
2022-12-11T15:58:48.215Z,2.68
2022-12-11T16:01:15.144Z,2.73
2022-12-11T16:03:41.967Z,2.75
2022-12-11T16:06:13.341Z,2.80
2022-12-11T16:08:40.091Z,2.77
2022-12-11T16:11:06.976Z,2.77
2022-12-11T16:13:33.757Z,2.81
2022-12-11T16:16:01.666Z,2.79
2022-12-11T16:18:28.604Z,2.80
2022-12-11T16:20:55.508Z,2.78
2022-12-11T16:23:22.538Z,2.70
2022-12-11T16:25:49.743Z,2.69
2022-12-11T16:28:18.776Z,2.67
2022-12-11T16:30:45.793Z,2.62
2022-12-11T16:33:13.930Z,2.61
2022-12-11T16:35:42.954Z,2.59
2022-12-11T16:38:10.962Z,2.60
2022-12-11T16:40:38.169Z,2.64
2022-12-11T16:43:05.966Z,2.68
2022-12-11T16:45:33.718Z,2.70
2022-12-11T16:48:04.217Z,2.67
2022-12-11T16:50:32.367Z,2.67
2022-12-11T16:52:59.521Z,2.68
2022-12-11T16:55:26.320Z,2.68
2022-12-11T16:57:53.194Z,2.70
2022-12-11T17:00:20.623Z,2.71
2022-12-11T17:02:47.798Z,2.68
2022-12-11T17:05:14.946Z,2.65
2022-12-11T17:07:42.080Z,2.65
2022-12-11T17:10:09.284Z,2.63
2022-12-11T17:12:36.561Z,2.62
2022-12-11T17:15:03.969Z,2.64
2022-12-11T17:17:31.380Z,2.66
2022-12-11T17:19:58.263Z,2.60
2022-12-11T17:22:25.462Z,2.58
2022-12-11T17:24:52.309Z,2.51
2022-12-11T17:27:19.211Z,2.50
2022-12-11T17:29:47.486Z,2.43
2022-12-11T17:32:14.547Z,2.36
2022-12-11T17:34:41.404Z,2.30
2022-12-11T17:37:08.273Z,2.18
2022-12-11T17:39:35.293Z,2.19
2022-12-11T17:42:02.106Z,2.20
2022-12-11T17:44:30.958Z,2.12
2022-12-11T17:46:59.152Z,2.10
2022-12-11T17:49:26.626Z,2.02
2022-12-11T17:51:55.481Z,2.01
2022-12-11T17:54:23.882Z,1.99
2022-12-11T17:56:51.022Z,2.00
2022-12-11T17:59:18.024Z,1.99
2022-12-11T18:01:45.654Z,1.97
2022-12-11T18:04:13.048Z,2.01
2022-12-11T18:06:39.942Z,2.03
2022-12-11T18:09:06.933Z,2.05
2022-12-11T18:11:34.120Z,2.00
2022-12-11T18:14:00.992Z,2.02
2022-12-11T18:16:34.676Z,1.95
2022-12-11T18:19:01.733Z,1.90
2022-12-11T18:21:32.290Z,1.98
2022-12-11T18:24:00.135Z,1.96
2022-12-11T18:26:27.924Z,1.87
2022-12-11T18:28:54.913Z,1.84
2022-12-11T18:31:22.952Z,1.79
2022-12-11T18:33:50.606Z,1.82
2022-12-11T18:36:19.496Z,1.80
2022-12-11T18:38:48.063Z,1.81
2022-12-11T18:41:17.110Z,1.73
2022-12-11T18:43:44.897Z,1.72
2022-12-11T18:46:14.483Z,1.74
2022-12-11T18:48:42.821Z,1.78
2022-12-11T18:51:12.569Z,1.76
2022-12-11T18:53:39.796Z,1.80
2022-12-11T18:56:13.218Z,1.80
2022-12-11T18:58:40.427Z,1.81
2022-12-11T19:01:14.121Z,1.80
2022-12-11T19:03:44.659Z,1.83
2022-12-11T19:06:14.769Z,1.79
2022-12-11T19:08:41.756Z,1.81
2022-12-11T19:11:08.794Z,1.78
2022-12-11T19:13:35.829Z,1.77
2022-12-11T19:16:02.981Z,1.74
2022-12-11T19:18:30.024Z,1.76
2022-12-11T19:21:08.114Z,1.76
2022-12-11T19:23:35.590Z,1.74
2022-12-11T19:26:02.617Z,1.73
2022-12-11T19:28:29.648Z,1.71
2022-12-11T19:30:56.722Z,1.69
2022-12-11T19:33:23.577Z,1.68
2022-12-11T19:35:59.957Z,1.65
2022-12-11T19:38:26.809Z,1.69
2022-12-11T19:40:54.273Z,1.68
2022-12-11T19:43:21.134Z,1.63
2022-12-11T19:45:48.394Z,1.59
2022-12-11T19:48:15.343Z,1.58
2022-12-11T19:50:42.216Z,1.57
2022-12-11T19:53:09.023Z,1.55
2022-12-11T19:55:35.829Z,1.51
2022-12-11T19:58:02.705Z,1.41
2022-12-11T20:00:29.619Z,1.41
2022-12-11T20:02:56.478Z,1.39
2022-12-11T20:05:23.292Z,1.39
2022-12-11T20:07:50.129Z,1.38
2022-12-11T20:10:17.021Z,1.33
2022-12-11T20:12:43.847Z,1.36
2022-12-11T20:15:11.780Z,1.39
2022-12-11T20:17:43.404Z,1.37
2022-12-11T20:20:11.221Z,1.34
